sensor_id;sensor_type;location;lat;lon;timestamp;P1;durP1;ratioP1;P2;durP2;ratioP2
69260;SDS011;56378;52.404;20.816;2023-01-20T00:01:10;44.95;;;15.95;;
69260;SDS011;56378;52.404;20.816;2023-01-20T00:03:36;56.00;;;17.37;;
69260;SDS011;56378;52.404;20.816;2023-01-20T00:06:03;53.45;;;17.33;;
69260;SDS011;56378;52.404;20.816;2023-01-20T00:08:29;54.35;;;17.35;;
69260;SDS011;56378;52.404;20.816;2023-01-20T00:10:55;47.00;;;16.97;;
69260;SDS011;56378;52.404;20.816;2023-01-20T00:13:20;57.90;;;17.88;;
69260;SDS011;56378;52.404;20.816;2023-01-20T00:15:46;57.28;;;17.38;;
69260;SDS011;56378;52.404;20.816;2023-01-20T00:18:13;56.03;;;17.53;;
69260;SDS011;56378;52.404;20.816;2023-01-20T00:20:39;54.00;;;16.55;;
69260;SDS011;56378;52.404;20.816;2023-01-20T00:23:05;58.28;;;18.73;;
69260;SDS011;56378;52.404;20.816;2023-01-20T00:25:30;54.80;;;16.67;;
69260;SDS011;56378;52.404;20.816;2023-01-20T00:27:59;52.33;;;17.85;;
69260;SDS011;56378;52.404;20.816;2023-01-20T00:30:24;54.78;;;17.63;;
69260;SDS011;56378;52.404;20.816;2023-01-20T00:32:50;54.93;;;17.40;;
69260;SDS011;56378;52.404;20.816;2023-01-20T00:35:16;53.28;;;17.48;;
69260;SDS011;56378;52.404;20.816;2023-01-20T00:37:41;54.27;;;17.87;;
69260;SDS011;56378;52.404;20.816;2023-01-20T00:40:07;53.40;;;17.30;;
69260;SDS011;56378;52.404;20.816;2023-01-20T00:42:33;59.17;;;18.15;;
69260;SDS011;56378;52.404;20.816;2023-01-20T00:44:59;52.85;;;17.48;;
69260;SDS011;56378;52.404;20.816;2023-01-20T00:47:25;57.47;;;17.93;;
69260;SDS011;56378;52.404;20.816;2023-01-20T00:49:50;53.75;;;16.35;;
69260;SDS011;56378;52.404;20.816;2023-01-20T00:52:16;55.07;;;16.83;;
69260;SDS011;56378;52.404;20.816;2023-01-20T00:54:45;50.22;;;16.00;;
69260;SDS011;56378;52.404;20.816;2023-01-20T00:57:10;56.33;;;16.45;;
69260;SDS011;56378;52.404;20.816;2023-01-20T00:59:36;44.85;;;15.10;;
69260;SDS011;56378;52.404;20.816;2023-01-20T01:02:02;49.75;;;15.63;;
69260;SDS011;56378;52.404;20.816;2023-01-20T01:04:28;49.37;;;15.33;;
69260;SDS011;56378;52.404;20.816;2023-01-20T01:06:54;49.72;;;16.17;;
69260;SDS011;56378;52.404;20.816;2023-01-20T01:09:20;54.97;;;15.90;;
69260;SDS011;56378;52.404;20.816;2023-01-20T01:11:48;53.63;;;16.33;;
69260;SDS011;56378;52.404;20.816;2023-01-20T01:14:14;48.45;;;14.80;;
69260;SDS011;56378;52.404;20.816;2023-01-20T01:16:40;47.55;;;14.52;;
69260;SDS011;56378;52.404;20.816;2023-01-20T01:19:05;49.40;;;15.23;;
69260;SDS011;56378;52.404;20.816;2023-01-20T01:21:31;55.35;;;16.77;;
69260;SDS011;56378;52.404;20.816;2023-01-20T01:23:57;51.13;;;16.27;;
69260;SDS011;56378;52.404;20.816;2023-01-20T01:26:23;52.05;;;15.85;;
69260;SDS011;56378;52.404;20.816;2023-01-20T01:28:48;57.93;;;16.77;;
69260;SDS011;56378;52.404;20.816;2023-01-20T01:31:15;57.25;;;17.48;;
69260;SDS011;56378;52.404;20.816;2023-01-20T01:33:43;53.22;;;16.13;;
69260;SDS011;56378;52.404;20.816;2023-01-20T01:36:13;57.72;;;17.83;;
69260;SDS011;56378;52.404;20.816;2023-01-20T01:38:40;61.10;;;17.52;;
69260;SDS011;56378;52.404;20.816;2023-01-20T01:41:06;59.55;;;16.80;;
69260;SDS011;56378;52.404;20.816;2023-01-20T01:43:35;63.63;;;17.90;;
69260;SDS011;56378;52.404;20.816;2023-01-20T01:46:03;56.22;;;16.55;;
69260;SDS011;56378;52.404;20.816;2023-01-20T01:51:02;62.78;;;18.00;;
69260;SDS011;56378;52.404;20.816;2023-01-20T01:53:40;59.70;;;17.27;;
69260;SDS011;56378;52.404;20.816;2023-01-20T01:56:19;57.53;;;17.35;;
69260;SDS011;56378;52.404;20.816;2023-01-20T01:58:47;61.08;;;17.65;;
69260;SDS011;56378;52.404;20.816;2023-01-20T02:01:15;56.00;;;16.58;;
69260;SDS011;56378;52.404;20.816;2023-01-20T02:06:13;60.50;;;16.60;;
69260;SDS011;56378;52.404;20.816;2023-01-20T02:08:40;61.42;;;17.92;;
69260;SDS011;56378;52.404;20.816;2023-01-20T02:11:07;64.68;;;17.30;;
69260;SDS011;56378;52.404;20.816;2023-01-20T02:13:32;61.90;;;18.87;;
69260;SDS011;56378;52.404;20.816;2023-01-20T02:21:32;59.10;;;17.27;;
69260;SDS011;56378;52.404;20.816;2023-01-20T02:27:13;62.33;;;17.40;;
69260;SDS011;56378;52.404;20.816;2023-01-20T02:35:20;61.50;;;16.77;;
69260;SDS011;56378;52.404;20.816;2023-01-20T02:38:05;60.83;;;16.73;;
69260;SDS011;56378;52.404;20.816;2023-01-20T02:40:48;65.22;;;16.67;;
69260;SDS011;56378;52.404;20.816;2023-01-20T02:43:34;60.67;;;17.58;;
69260;SDS011;56378;52.404;20.816;2023-01-20T02:46:10;63.70;;;18.20;;
69260;SDS011;56378;52.404;20.816;2023-01-20T02:51:16;64.33;;;17.03;;
69260;SDS011;56378;52.404;20.816;2023-01-20T02:53:55;64.03;;;17.30;;
69260;SDS011;56378;52.404;20.816;2023-01-20T02:56:26;62.25;;;16.60;;
69260;SDS011;56378;52.404;20.816;2023-01-20T03:01:28;63.88;;;17.00;;
69260;SDS011;56378;52.404;20.816;2023-01-20T03:03:58;67.55;;;16.63;;
69260;SDS011;56378;52.404;20.816;2023-01-20T03:06:27;57.40;;;16.23;;
69260;SDS011;56378;52.404;20.816;2023-01-20T03:08:57;69.10;;;17.20;;
69260;SDS011;56378;52.404;20.816;2023-01-20T03:11:26;64.27;;;16.97;;
69260;SDS011;56378;52.404;20.816;2023-01-20T03:14:00;64.13;;;16.92;;
69260;SDS011;56378;52.404;20.816;2023-01-20T03:16:31;57.53;;;16.35;;
69260;SDS011;56378;52.404;20.816;2023-01-20T03:18:58;57.22;;;17.48;;
69260;SDS011;56378;52.404;20.816;2023-01-20T03:21:23;64.07;;;15.50;;
69260;SDS011;56378;52.404;20.816;2023-01-20T03:23:50;67.65;;;15.88;;
69260;SDS011;56378;52.404;20.816;2023-01-20T03:26:18;59.03;;;16.48;;
69260;SDS011;56378;52.404;20.816;2023-01-20T03:28:45;59.05;;;17.40;;
69260;SDS011;56378;52.404;20.816;2023-01-20T03:31:27;58.13;;;16.98;;
69260;SDS011;56378;52.404;20.816;2023-01-20T03:33:57;54.92;;;15.70;;
69260;SDS011;56378;52.404;20.816;2023-01-20T03:36:27;63.10;;;17.33;;
69260;SDS011;56378;52.404;20.816;2023-01-20T03:38:55;54.95;;;15.55;;
69260;SDS011;56378;52.404;20.816;2023-01-20T03:47:00;55.83;;;15.02;;
69260;SDS011;56378;52.404;20.816;2023-01-20T03:52:40;62.22;;;16.17;;
69260;SDS011;56378;52.404;20.816;2023-01-20T03:57:51;60.47;;;16.23;;
69260;SDS011;56378;52.404;20.816;2023-01-20T04:00:22;61.55;;;16.25;;
69260;SDS011;56378;52.404;20.816;2023-01-20T04:02:52;66.05;;;16.65;;
69260;SDS011;56378;52.404;20.816;2023-01-20T04:05:19;58.60;;;15.98;;
69260;SDS011;56378;52.404;20.816;2023-01-20T04:07:46;55.80;;;16.35;;
69260;SDS011;56378;52.404;20.816;2023-01-20T04:10:14;58.20;;;15.00;;
69260;SDS011;56378;52.404;20.816;2023-01-20T04:12:42;60.30;;;15.27;;
69260;SDS011;56378;52.404;20.816;2023-01-20T04:15:07;55.53;;;16.73;;
69260;SDS011;56378;52.404;20.816;2023-01-20T04:17:34;51.90;;;14.73;;
69260;SDS011;56378;52.404;20.816;2023-01-20T04:20:02;57.20;;;14.95;;
69260;SDS011;56378;52.404;20.816;2023-01-20T04:22:50;46.33;;;13.98;;
69260;SDS011;56378;52.404;20.816;2023-01-20T04:27:51;60.25;;;14.93;;
69260;SDS011;56378;52.404;20.816;2023-01-20T04:30:17;55.90;;;15.40;;
69260;SDS011;56378;52.404;20.816;2023-01-20T04:32:43;56.97;;;15.93;;
69260;SDS011;56378;52.404;20.816;2023-01-20T04:35:12;58.03;;;14.88;;
69260;SDS011;56378;52.404;20.816;2023-01-20T04:37:40;61.42;;;15.75;;
69260;SDS011;56378;52.404;20.816;2023-01-20T04:40:06;61.17;;;15.20;;
69260;SDS011;56378;52.404;20.816;2023-01-20T04:42:33;55.28;;;14.98;;
69260;SDS011;56378;52.404;20.816;2023-01-20T04:44:58;62.53;;;14.68;;
69260;SDS011;56378;52.404;20.816;2023-01-20T04:47:24;57.05;;;14.68;;
69260;SDS011;56378;52.404;20.816;2023-01-20T04:49:50;64.68;;;15.70;;
69260;SDS011;56378;52.404;20.816;2023-01-20T04:52:15;48.17;;;14.07;;
69260;SDS011;56378;52.404;20.816;2023-01-20T04:54:41;60.55;;;16.20;;
69260;SDS011;56378;52.404;20.816;2023-01-20T04:57:07;54.70;;;13.37;;
69260;SDS011;56378;52.404;20.816;2023-01-20T04:59:32;52.80;;;14.55;;
69260;SDS011;56378;52.404;20.816;2023-01-20T05:01:58;63.88;;;16.02;;
69260;SDS011;56378;52.404;20.816;2023-01-20T05:04:24;62.92;;;15.48;;
69260;SDS011;56378;52.404;20.816;2023-01-20T05:06:50;61.63;;;16.43;;
69260;SDS011;56378;52.404;20.816;2023-01-20T05:09:15;58.92;;;14.98;;
69260;SDS011;56378;52.404;20.816;2023-01-20T05:11:42;54.05;;;15.05;;
69260;SDS011;56378;52.404;20.816;2023-01-20T05:14:09;59.03;;;15.32;;
69260;SDS011;56378;52.404;20.816;2023-01-20T05:16:36;54.90;;;15.38;;
69260;SDS011;56378;52.404;20.816;2023-01-20T05:19:02;59.70;;;16.27;;
69260;SDS011;56378;52.404;20.816;2023-01-20T05:21:27;58.13;;;15.27;;
69260;SDS011;56378;52.404;20.816;2023-01-20T05:23:54;62.90;;;16.25;;
69260;SDS011;56378;52.404;20.816;2023-01-20T05:26:23;52.65;;;15.10;;
69260;SDS011;56378;52.404;20.816;2023-01-20T05:28:50;58.55;;;16.95;;
69260;SDS011;56378;52.404;20.816;2023-01-20T05:31:16;52.50;;;15.17;;
69260;SDS011;56378;52.404;20.816;2023-01-20T05:33:42;57.60;;;15.02;;
69260;SDS011;56378;52.404;20.816;2023-01-20T05:36:08;56.05;;;15.10;;
69260;SDS011;56378;52.404;20.816;2023-01-20T05:38:35;56.63;;;15.20;;
69260;SDS011;56378;52.404;20.816;2023-01-20T05:41:02;66.00;;;16.45;;
69260;SDS011;56378;52.404;20.816;2023-01-20T05:43:31;58.95;;;15.07;;
69260;SDS011;56378;52.404;20.816;2023-01-20T05:45:59;58.88;;;16.52;;
69260;SDS011;56378;52.404;20.816;2023-01-20T05:48:25;59.30;;;16.38;;
69260;SDS011;56378;52.404;20.816;2023-01-20T05:50:51;53.43;;;14.13;;
69260;SDS011;56378;52.404;20.816;2023-01-20T05:53:17;57.88;;;15.23;;
69260;SDS011;56378;52.404;20.816;2023-01-20T05:55:43;57.93;;;16.30;;
69260;SDS011;56378;52.404;20.816;2023-01-20T05:58:09;61.38;;;16.20;;
69260;SDS011;56378;52.404;20.816;2023-01-20T06:00:37;63.55;;;17.08;;
69260;SDS011;56378;52.404;20.816;2023-01-20T06:03:02;67.57;;;16.98;;
69260;SDS011;56378;52.404;20.816;2023-01-20T06:05:28;63.63;;;16.60;;
69260;SDS011;56378;52.404;20.816;2023-01-20T06:07:54;67.57;;;17.42;;
69260;SDS011;56378;52.404;20.816;2023-01-20T06:10:21;58.55;;;17.10;;
69260;SDS011;56378;52.404;20.816;2023-01-20T06:12:52;59.63;;;16.73;;
69260;SDS011;56378;52.404;20.816;2023-01-20T06:15:23;55.63;;;15.45;;
69260;SDS011;56378;52.404;20.816;2023-01-20T06:17:49;66.28;;;16.15;;
69260;SDS011;56378;52.404;20.816;2023-01-20T06:20:16;56.20;;;15.15;;
69260;SDS011;56378;52.404;20.816;2023-01-20T06:22:41;60.45;;;15.48;;
69260;SDS011;56378;52.404;20.816;2023-01-20T06:25:07;54.07;;;15.47;;
69260;SDS011;56378;52.404;20.816;2023-01-20T06:27:33;56.72;;;15.75;;
69260;SDS011;56378;52.404;20.816;2023-01-20T06:29:59;51.93;;;13.43;;
69260;SDS011;56378;52.404;20.816;2023-01-20T06:32:24;57.85;;;14.50;;
69260;SDS011;56378;52.404;20.816;2023-01-20T06:34:50;52.20;;;14.10;;
69260;SDS011;56378;52.404;20.816;2023-01-20T06:37:18;58.75;;;14.50;;
69260;SDS011;56378;52.404;20.816;2023-01-20T06:39:44;59.65;;;15.68;;
69260;SDS011;56378;52.404;20.816;2023-01-20T06:42:10;60.47;;;15.57;;
69260;SDS011;56378;52.404;20.816;2023-01-20T06:44:35;61.23;;;15.77;;
69260;SDS011;56378;52.404;20.816;2023-01-20T06:47:01;52.80;;;14.75;;
69260;SDS011;56378;52.404;20.816;2023-01-20T06:49:27;53.23;;;15.10;;
69260;SDS011;56378;52.404;20.816;2023-01-20T06:51:53;65.20;;;16.13;;
69260;SDS011;56378;52.404;20.816;2023-01-20T06:54:19;56.57;;;15.20;;
69260;SDS011;56378;52.404;20.816;2023-01-20T06:56:44;57.35;;;14.48;;
69260;SDS011;56378;52.404;20.816;2023-01-20T06:59:10;56.70;;;14.97;;
69260;SDS011;56378;52.404;20.816;2023-01-20T07:01:37;55.53;;;15.77;;
69260;SDS011;56378;52.404;20.816;2023-01-20T07:04:02;55.45;;;16.52;;
69260;SDS011;56378;52.404;20.816;2023-01-20T07:06:33;56.67;;;16.33;;
69260;SDS011;56378;52.404;20.816;2023-01-20T07:09:02;60.78;;;15.00;;
69260;SDS011;56378;52.404;20.816;2023-01-20T07:11:29;58.10;;;15.10;;
69260;SDS011;56378;52.404;20.816;2023-01-20T07:13:55;53.83;;;15.25;;
69260;SDS011;56378;52.404;20.816;2023-01-20T07:16:21;62.07;;;15.60;;
69260;SDS011;56378;52.404;20.816;2023-01-20T07:18:48;61.83;;;16.80;;
69260;SDS011;56378;52.404;20.816;2023-01-20T07:21:15;53.60;;;15.90;;
69260;SDS011;56378;52.404;20.816;2023-01-20T07:23:41;60.33;;;15.48;;
69260;SDS011;56378;52.404;20.816;2023-01-20T07:26:11;60.80;;;14.53;;
69260;SDS011;56378;52.404;20.816;2023-01-20T07:28:41;50.13;;;13.75;;
69260;SDS011;56378;52.404;20.816;2023-01-20T07:31:11;53.67;;;13.60;;
69260;SDS011;56378;52.404;20.816;2023-01-20T07:33:41;56.35;;;14.55;;
69260;SDS011;56378;52.404;20.816;2023-01-20T07:36:08;52.70;;;14.37;;
69260;SDS011;56378;52.404;20.816;2023-01-20T07:38:35;55.75;;;14.80;;
69260;SDS011;56378;52.404;20.816;2023-01-20T07:41:03;51.70;;;14.25;;
69260;SDS011;56378;52.404;20.816;2023-01-20T07:43:30;57.60;;;14.82;;
69260;SDS011;56378;52.404;20.816;2023-01-20T07:45:57;49.47;;;14.43;;
69260;SDS011;56378;52.404;20.816;2023-01-20T07:48:24;58.73;;;15.63;;
69260;SDS011;56378;52.404;20.816;2023-01-20T07:53:43;49.25;;;14.88;;
69260;SDS011;56378;52.404;20.816;2023-01-20T07:56:15;53.08;;;14.25;;
69260;SDS011;56378;52.404;20.816;2023-01-20T07:58:42;48.97;;;14.73;;
69260;SDS011;56378;52.404;20.816;2023-01-20T08:01:13;54.87;;;15.20;;
69260;SDS011;56378;52.404;20.816;2023-01-20T08:03:44;63.72;;;21.10;;
69260;SDS011;56378;52.404;20.816;2023-01-20T08:06:10;64.18;;;21.02;;
69260;SDS011;56378;52.404;20.816;2023-01-20T08:08:38;52.95;;;15.48;;
69260;SDS011;56378;52.404;20.816;2023-01-20T08:11:04;44.90;;;14.20;;
69260;SDS011;56378;52.404;20.816;2023-01-20T08:13:32;44.83;;;13.63;;
69260;SDS011;56378;52.404;20.816;2023-01-20T08:15:58;43.58;;;14.07;;
69260;SDS011;56378;52.404;20.816;2023-01-20T08:18:25;40.78;;;12.35;;
69260;SDS011;56378;52.404;20.816;2023-01-20T08:20:51;44.53;;;13.47;;
69260;SDS011;56378;52.404;20.816;2023-01-20T08:23:17;39.83;;;12.38;;
69260;SDS011;56378;52.404;20.816;2023-01-20T08:25:42;42.47;;;12.57;;
69260;SDS011;56378;52.404;20.816;2023-01-20T08:28:08;40.22;;;12.43;;
69260;SDS011;56378;52.404;20.816;2023-01-20T08:30:34;45.07;;;13.63;;
69260;SDS011;56378;52.404;20.816;2023-01-20T08:33:00;42.55;;;13.15;;
69260;SDS011;56378;52.404;20.816;2023-01-20T08:35:25;39.00;;;12.97;;
69260;SDS011;56378;52.404;20.816;2023-01-20T08:37:51;47.42;;;13.38;;
69260;SDS011;56378;52.404;20.816;2023-01-20T08:40:20;43.67;;;13.57;;
69260;SDS011;56378;52.404;20.816;2023-01-20T08:42:48;37.08;;;12.57;;
69260;SDS011;56378;52.404;20.816;2023-01-20T08:45:13;40.78;;;12.98;;
69260;SDS011;56378;52.404;20.816;2023-01-20T08:47:40;35.33;;;10.60;;
69260;SDS011;56378;52.404;20.816;2023-01-20T08:50:10;28.13;;;10.13;;
69260;SDS011;56378;52.404;20.816;2023-01-20T08:52:38;28.65;;;10.02;;
69260;SDS011;56378;52.404;20.816;2023-01-20T08:55:04;29.48;;;10.68;;
69260;SDS011;56378;52.404;20.816;2023-01-20T08:57:30;30.00;;;10.30;;
69260;SDS011;56378;52.404;20.816;2023-01-20T08:59:56;33.10;;;11.05;;
69260;SDS011;56378;52.404;20.816;2023-01-20T09:02:22;32.05;;;10.70;;
69260;SDS011;56378;52.404;20.816;2023-01-20T09:04:48;32.70;;;11.77;;
69260;SDS011;56378;52.404;20.816;2023-01-20T09:07:16;32.28;;;11.43;;
69260;SDS011;56378;52.404;20.816;2023-01-20T09:09:43;32.75;;;12.20;;
69260;SDS011;56378;52.404;20.816;2023-01-20T09:12:09;34.05;;;11.48;;
69260;SDS011;56378;52.404;20.816;2023-01-20T09:14:35;33.35;;;11.75;;
69260;SDS011;56378;52.404;20.816;2023-01-20T09:17:01;32.17;;;12.47;;
69260;SDS011;56378;52.404;20.816;2023-01-20T09:19:28;35.35;;;12.50;;
69260;SDS011;56378;52.404;20.816;2023-01-20T09:21:54;33.35;;;11.77;;
69260;SDS011;56378;52.404;20.816;2023-01-20T09:24:20;36.20;;;12.43;;
69260;SDS011;56378;52.404;20.816;2023-01-20T09:26:46;34.72;;;10.85;;
69260;SDS011;56378;52.404;20.816;2023-01-20T09:29:14;33.28;;;11.25;;
69260;SDS011;56378;52.404;20.816;2023-01-20T09:31:43;33.17;;;11.30;;
69260;SDS011;56378;52.404;20.816;2023-01-20T09:34:13;33.50;;;10.88;;
69260;SDS011;56378;52.404;20.816;2023-01-20T09:36:48;33.55;;;12.00;;
69260;SDS011;56378;52.404;20.816;2023-01-20T09:39:18;33.08;;;11.35;;
69260;SDS011;56378;52.404;20.816;2023-01-20T09:47:49;32.90;;;11.75;;
69260;SDS011;56378;52.404;20.816;2023-01-20T09:50:27;30.63;;;10.98;;
69260;SDS011;56378;52.404;20.816;2023-01-20T09:56:03;28.60;;;10.35;;
69260;SDS011;56378;52.404;20.816;2023-01-20T09:58:45;29.15;;;10.98;;
69260;SDS011;56378;52.404;20.816;2023-01-20T10:04:20;25.17;;;9.75;;
69260;SDS011;56378;52.404;20.816;2023-01-20T10:12:24;24.75;;;9.80;;
69260;SDS011;56378;52.404;20.816;2023-01-20T10:17:38;31.33;;;12.20;;
69260;SDS011;56378;52.404;20.816;2023-01-20T10:20:13;26.80;;;10.18;;
69260;SDS011;56378;52.404;20.816;2023-01-20T10:22:59;25.15;;;10.23;;
69260;SDS011;56378;52.404;20.816;2023-01-20T10:25:48;31.08;;;10.32;;
69260;SDS011;56378;52.404;20.816;2023-01-20T10:28:31;42.95;;;16.58;;
69260;SDS011;56378;52.404;20.816;2023-01-20T10:31:05;33.42;;;13.90;;
69260;SDS011;56378;52.404;20.816;2023-01-20T10:33:36;31.35;;;13.40;;
69260;SDS011;56378;52.404;20.816;2023-01-20T10:36:07;30.92;;;13.25;;
69260;SDS011;56378;52.404;20.816;2023-01-20T10:38:42;31.55;;;13.40;;
69260;SDS011;56378;52.404;20.816;2023-01-20T10:44:13;32.95;;;13.07;;
69260;SDS011;56378;52.404;20.816;2023-01-20T10:57:35;23.52;;;9.45;;
69260;SDS011;56378;52.404;20.816;2023-01-20T11:00:03;22.95;;;9.15;;
69260;SDS011;56378;52.404;20.816;2023-01-20T11:02:39;24.13;;;9.77;;
69260;SDS011;56378;52.404;20.816;2023-01-20T11:05:16;24.70;;;10.25;;
69260;SDS011;56378;52.404;20.816;2023-01-20T11:07:44;33.20;;;13.07;;
69260;SDS011;56378;52.404;20.816;2023-01-20T11:10:14;30.77;;;13.35;;
69260;SDS011;56378;52.404;20.816;2023-01-20T11:12:46;33.05;;;13.23;;
69260;SDS011;56378;52.404;20.816;2023-01-20T11:15:16;35.93;;;13.70;;
69260;SDS011;56378;52.404;20.816;2023-01-20T11:20:52;23.92;;;9.57;;
69260;SDS011;56378;52.404;20.816;2023-01-20T11:23:37;30.95;;;12.63;;
69260;SDS011;56378;52.404;20.816;2023-01-20T11:29:02;24.20;;;9.87;;
69260;SDS011;56378;52.404;20.816;2023-01-20T11:34:23;25.52;;;9.68;;
69260;SDS011;56378;52.404;20.816;2023-01-20T11:39:36;24.70;;;8.88;;
69260;SDS011;56378;52.404;20.816;2023-01-20T11:42:40;20.77;;;8.23;;
69260;SDS011;56378;52.404;20.816;2023-01-20T11:45:21;23.13;;;7.95;;
69260;SDS011;56378;52.404;20.816;2023-01-20T11:47:59;22.15;;;9.15;;
69260;SDS011;56378;52.404;20.816;2023-01-20T11:50:38;20.52;;;8.13;;
69260;SDS011;56378;52.404;20.816;2023-01-20T11:53:14;18.95;;;8.65;;
69260;SDS011;56378;52.404;20.816;2023-01-20T11:55:47;20.30;;;7.37;;
69260;SDS011;56378;52.404;20.816;2023-01-20T11:58:18;19.70;;;7.30;;
69260;SDS011;56378;52.404;20.816;2023-01-20T12:00:49;18.63;;;7.28;;
69260;SDS011;56378;52.404;20.816;2023-01-20T12:06:18;22.33;;;7.50;;
69260;SDS011;56378;52.404;20.816;2023-01-20T12:11:16;19.85;;;7.78;;
69260;SDS011;56378;52.404;20.816;2023-01-20T12:20:12;22.30;;;8.45;;
69260;SDS011;56378;52.404;20.816;2023-01-20T12:25:29;20.23;;;7.43;;
69260;SDS011;56378;52.404;20.816;2023-01-20T12:28:13;26.90;;;8.38;;
69260;SDS011;56378;52.404;20.816;2023-01-20T12:30:45;21.08;;;8.27;;
69260;SDS011;56378;52.404;20.816;2023-01-20T12:33:55;21.17;;;8.07;;
69260;SDS011;56378;52.404;20.816;2023-01-20T12:36:10;21.67;;;7.83;;
69260;SDS011;56378;52.404;20.816;2023-01-20T12:44:22;19.95;;;7.82;;
69260;SDS011;56378;52.404;20.816;2023-01-20T12:55:22;22.58;;;8.55;;
69260;SDS011;56378;52.404;20.816;2023-01-20T13:20:38;26.95;;;9.77;;
69260;SDS011;56378;52.404;20.816;2023-01-20T13:23:08;27.20;;;10.27;;
69260;SDS011;56378;52.404;20.816;2023-01-20T13:25:47;22.83;;;9.35;;
69260;SDS011;56378;52.404;20.816;2023-01-20T13:28:16;34.83;;;14.52;;
69260;SDS011;56378;52.404;20.816;2023-01-20T13:30:45;32.73;;;13.33;;
69260;SDS011;56378;52.404;20.816;2023-01-20T13:35:58;29.40;;;10.65;;
69260;SDS011;56378;52.404;20.816;2023-01-20T13:38:37;23.25;;;9.68;;
69260;SDS011;56378;52.404;20.816;2023-01-20T13:41:03;23.97;;;9.60;;
69260;SDS011;56378;52.404;20.816;2023-01-20T13:48:30;27.77;;;10.48;;
69260;SDS011;56378;52.404;20.816;2023-01-20T13:53:45;30.63;;;10.18;;
69260;SDS011;56378;52.404;20.816;2023-01-20T13:56:32;30.35;;;9.93;;
69260;SDS011;56378;52.404;20.816;2023-01-20T13:58:57;25.65;;;9.05;;
69260;SDS011;56378;52.404;20.816;2023-01-20T14:01:23;28.33;;;10.18;;
69260;SDS011;56378;52.404;20.816;2023-01-20T14:06:46;27.45;;;9.82;;
69260;SDS011;56378;52.404;20.816;2023-01-20T14:09:20;28.73;;;10.70;;
69260;SDS011;56378;52.404;20.816;2023-01-20T14:11:47;26.80;;;9.95;;
69260;SDS011;56378;52.404;20.816;2023-01-20T14:14:16;27.80;;;10.40;;
69260;SDS011;56378;52.404;20.816;2023-01-20T14:16:44;27.57;;;10.10;;
69260;SDS011;56378;52.404;20.816;2023-01-20T14:21:56;26.63;;;10.13;;
69260;SDS011;56378;52.404;20.816;2023-01-20T14:27:05;32.92;;;12.55;;
69260;SDS011;56378;52.404;20.816;2023-01-20T14:29:52;31.50;;;12.43;;
69260;SDS011;56378;52.404;20.816;2023-01-20T14:34:52;31.17;;;12.27;;
69260;SDS011;56378;52.404;20.816;2023-01-20T14:39:50;26.00;;;9.93;;
69260;SDS011;56378;52.404;20.816;2023-01-20T14:42:19;25.83;;;10.03;;
69260;SDS011;56378;52.404;20.816;2023-01-20T14:44:46;29.73;;;10.57;;
69260;SDS011;56378;52.404;20.816;2023-01-20T14:47:13;26.17;;;10.60;;
69260;SDS011;56378;52.404;20.816;2023-01-20T14:49:39;26.65;;;10.88;;
69260;SDS011;56378;52.404;20.816;2023-01-20T14:52:07;28.83;;;10.52;;
69260;SDS011;56378;52.404;20.816;2023-01-20T14:59:42;22.17;;;9.25;;
69260;SDS011;56378;52.404;20.816;2023-01-20T15:02:14;25.65;;;9.52;;
69260;SDS011;56378;52.404;20.816;2023-01-20T15:04:54;20.05;;;8.45;;
69260;SDS011;56378;52.404;20.816;2023-01-20T15:07:20;21.30;;;8.43;;
69260;SDS011;56378;52.404;20.816;2023-01-20T15:10:00;20.50;;;8.05;;
69260;SDS011;56378;52.404;20.816;2023-01-20T15:17:31;19.50;;;7.40;;
69260;SDS011;56378;52.404;20.816;2023-01-20T15:19:57;18.97;;;7.67;;
69260;SDS011;56378;52.404;20.816;2023-01-20T15:22:23;17.20;;;7.70;;
69260;SDS011;56378;52.404;20.816;2023-01-20T15:24:51;20.27;;;8.00;;
69260;SDS011;56378;52.404;20.816;2023-01-20T15:27:21;20.42;;;7.68;;
69260;SDS011;56378;52.404;20.816;2023-01-20T15:32:43;21.20;;;7.75;;
69260;SDS011;56378;52.404;20.816;2023-01-20T15:35:11;19.38;;;7.80;;
69260;SDS011;56378;52.404;20.816;2023-01-20T15:37:41;20.77;;;8.15;;
69260;SDS011;56378;52.404;20.816;2023-01-20T15:42:38;17.50;;;7.20;;
69260;SDS011;56378;52.404;20.816;2023-01-20T15:45:04;20.17;;;6.97;;
69260;SDS011;56378;52.404;20.816;2023-01-20T15:47:31;19.85;;;7.55;;
69260;SDS011;56378;52.404;20.816;2023-01-20T15:49:58;19.83;;;7.43;;
69260;SDS011;56378;52.404;20.816;2023-01-20T15:52:24;17.98;;;6.97;;
69260;SDS011;56378;52.404;20.816;2023-01-20T15:54:50;19.53;;;8.07;;
69260;SDS011;56378;52.404;20.816;2023-01-20T15:57:16;21.23;;;8.50;;
69260;SDS011;56378;52.404;20.816;2023-01-20T15:59:42;20.27;;;7.78;;
69260;SDS011;56378;52.404;20.816;2023-01-20T16:02:20;18.70;;;7.57;;
69260;SDS011;56378;52.404;20.816;2023-01-20T16:04:46;24.55;;;8.57;;
69260;SDS011;56378;52.404;20.816;2023-01-20T16:07:16;19.85;;;7.78;;
69260;SDS011;56378;52.404;20.816;2023-01-20T16:09:43;18.77;;;8.20;;
69260;SDS011;56378;52.404;20.816;2023-01-20T16:12:16;19.95;;;8.48;;
69260;SDS011;56378;52.404;20.816;2023-01-20T16:14:43;21.10;;;8.15;;
69260;SDS011;56378;52.404;20.816;2023-01-20T16:17:18;22.95;;;8.75;;
69260;SDS011;56378;52.404;20.816;2023-01-20T16:19:46;20.83;;;7.72;;
69260;SDS011;56378;52.404;20.816;2023-01-20T16:22:13;23.45;;;9.90;;
69260;SDS011;56378;52.404;20.816;2023-01-20T16:24:39;23.10;;;8.90;;
69260;SDS011;56378;52.404;20.816;2023-01-20T16:27:15;24.20;;;9.38;;
69260;SDS011;56378;52.404;20.816;2023-01-20T16:29:43;20.80;;;7.50;;
69260;SDS011;56378;52.404;20.816;2023-01-20T16:32:09;24.33;;;9.23;;
69260;SDS011;56378;52.404;20.816;2023-01-20T16:34:35;25.38;;;9.52;;
69260;SDS011;56378;52.404;20.816;2023-01-20T16:37:01;26.48;;;9.60;;
69260;SDS011;56378;52.404;20.816;2023-01-20T16:39:27;24.37;;;8.37;;
69260;SDS011;56378;52.404;20.816;2023-01-20T16:41:53;23.65;;;8.70;;
69260;SDS011;56378;52.404;20.816;2023-01-20T16:44:18;23.98;;;8.68;;
69260;SDS011;56378;52.404;20.816;2023-01-20T16:46:47;23.95;;;9.45;;
69260;SDS011;56378;52.404;20.816;2023-01-20T16:49:13;25.58;;;8.90;;
69260;SDS011;56378;52.404;20.816;2023-01-20T16:51:38;20.73;;;7.47;;
69260;SDS011;56378;52.404;20.816;2023-01-20T16:54:05;19.15;;;7.53;;
69260;SDS011;56378;52.404;20.816;2023-01-20T16:56:31;19.23;;;7.32;;
69260;SDS011;56378;52.404;20.816;2023-01-20T16:58:58;18.27;;;7.47;;
69260;SDS011;56378;52.404;20.816;2023-01-20T17:01:25;19.80;;;7.43;;
69260;SDS011;56378;52.404;20.816;2023-01-20T17:03:53;19.95;;;8.50;;
69260;SDS011;56378;52.404;20.816;2023-01-20T17:06:21;18.40;;;7.03;;
69260;SDS011;56378;52.404;20.816;2023-01-20T17:08:49;18.23;;;7.18;;
69260;SDS011;56378;52.404;20.816;2023-01-20T17:11:20;18.30;;;6.75;;
69260;SDS011;56378;52.404;20.816;2023-01-20T17:14:05;17.75;;;6.95;;
69260;SDS011;56378;52.404;20.816;2023-01-20T17:16:32;18.50;;;6.05;;
69260;SDS011;56378;52.404;20.816;2023-01-20T17:18:59;16.98;;;6.38;;